createdAt,value
2023-03-18T00:00:52.271Z,-0.70
2023-03-18T00:03:19.394Z,-0.83
2023-03-18T00:05:46.568Z,-0.75
2023-03-18T00:08:13.545Z,-0.65
2023-03-18T00:10:40.700Z,-0.61
2023-03-18T00:13:07.681Z,-0.57
2023-03-18T00:15:34.777Z,-0.57
2023-03-18T00:18:01.754Z,-0.61
2023-03-18T00:20:38.720Z,-0.62
2023-03-18T00:23:06.922Z,-0.55
2023-03-18T00:25:33.905Z,-0.71
2023-03-18T00:28:00.907Z,-0.72
2023-03-18T00:30:27.952Z,-0.68
2023-03-18T00:32:56.690Z,-0.71
2023-03-18T00:35:27.937Z,-0.71
2023-03-18T00:37:55.631Z,-0.78
2023-03-18T00:40:28.609Z,-0.81
2023-03-18T00:43:07.847Z,-0.81
2023-03-18T00:45:38.365Z,-0.77
2023-03-18T00:48:05.453Z,-0.77
2023-03-18T00:50:32.677Z,-0.93
2023-03-18T00:53:00.821Z,-0.84
2023-03-18T00:55:28.835Z,-0.93
2023-03-18T00:57:55.788Z,-0.83
2023-03-18T01:00:22.906Z,-0.95
2023-03-18T01:02:49.899Z,-0.92
2023-03-18T01:05:17.502Z,-0.90
2023-03-18T01:07:44.946Z,-1.02
2023-03-18T01:10:14.659Z,-1.08
2023-03-18T01:12:43.420Z,-1.06
2023-03-18T01:15:13.998Z,-1.08
2023-03-18T01:17:41.035Z,-1.06
2023-03-18T01:20:11.627Z,-1.08
2023-03-18T01:22:42.336Z,-1.21
2023-03-18T01:25:11.806Z,-1.14
2023-03-18T01:27:40.807Z,-1.15
2023-03-18T01:30:09.351Z,-1.30
2023-03-18T01:32:38.123Z,-1.30
2023-03-18T01:35:06.021Z,-1.20
2023-03-18T01:37:33.637Z,-1.19
2023-03-18T01:40:11.857Z,-1.17
2023-03-18T01:42:40.124Z,-1.17
2023-03-18T01:45:40.507Z,-1.16
2023-03-18T01:48:14.986Z,-1.21
2023-03-18T01:50:45.038Z,-1.25
2023-03-18T01:53:15.608Z,-1.30
2023-03-18T01:55:45.514Z,-1.36
2023-03-18T01:58:27.222Z,-1.30
2023-03-18T02:01:09.609Z,-1.33
2023-03-18T02:03:41.586Z,-1.41
2023-03-18T02:06:10.218Z,-1.31
2023-03-18T02:08:39.651Z,-1.35
2023-03-18T02:11:09.411Z,-1.77
2023-03-18T02:13:44.101Z,-1.45
2023-03-18T02:16:32.594Z,-1.48
2023-03-18T02:19:09.645Z,-1.50
2023-03-18T02:21:54.399Z,-1.54
2023-03-18T02:24:25.333Z,-1.46
2023-03-18T02:27:18.477Z,-1.50
2023-03-18T02:29:47.409Z,-1.54
2023-03-18T02:32:20.945Z,-1.63
2023-03-18T02:34:49.125Z,-1.48
2023-03-18T02:37:16.266Z,-1.52
2023-03-18T02:39:44.131Z,-1.43
2023-03-18T02:42:14.334Z,-1.46
2023-03-18T02:44:48.459Z,-1.42
2023-03-18T02:47:52.944Z,-1.47
2023-03-18T02:50:21.653Z,-1.43
2023-03-18T02:52:48.644Z,-1.55
2023-03-18T02:55:15.759Z,-1.47
2023-03-18T02:57:42.904Z,-1.46
2023-03-18T03:00:11.217Z,-1.44
2023-03-18T03:02:38.342Z,-1.82
2023-03-18T03:05:05.815Z,-1.44
2023-03-18T03:07:32.825Z,-1.44
2023-03-18T03:10:03.129Z,-1.57
2023-03-18T03:12:30.845Z,-1.56
2023-03-18T03:14:58.471Z,-1.62
2023-03-18T03:17:28.065Z,-1.51
2023-03-18T03:19:55.020Z,-1.48
2023-03-18T03:22:22.123Z,-1.52
2023-03-18T03:24:49.354Z,-1.57
2023-03-18T03:27:16.760Z,-1.59
2023-03-18T03:29:43.817Z,-1.50
2023-03-18T03:32:10.899Z,-1.59
2023-03-18T03:34:38.754Z,-1.49
2023-03-18T03:37:06.766Z,-1.52
2023-03-18T03:39:34.051Z,-1.57
2023-03-18T03:42:01.015Z,-1.64
2023-03-18T03:44:28.008Z,-1.56
2023-03-18T03:46:55.485Z,-1.56
2023-03-18T03:49:23.668Z,-1.54
2023-03-18T03:51:50.627Z,-1.56
2023-03-18T03:54:19.725Z,-1.63
2023-03-18T03:56:48.062Z,-1.59
2023-03-18T03:59:19.238Z,-1.64
2023-03-18T04:02:19.263Z,-1.58
2023-03-18T04:04:46.524Z,-1.55
2023-03-18T04:07:40.215Z,-1.62
2023-03-18T04:10:10.819Z,-1.48
2023-03-18T04:12:39.954Z,-1.78
2023-03-18T04:15:08.509Z,-1.60
2023-03-18T04:17:36.375Z,-1.66
2023-03-18T04:20:05.563Z,-1.68
2023-03-18T04:22:34.128Z,-1.46
2023-03-18T04:25:04.972Z,-1.48
2023-03-18T04:27:33.990Z,-1.45
2023-03-18T04:30:08.451Z,-1.44
2023-03-18T04:32:44.504Z,-1.47
2023-03-18T04:35:12.114Z,-1.45
2023-03-18T04:37:39.153Z,-1.49
2023-03-18T04:40:07.257Z,-1.41
2023-03-18T04:42:34.955Z,-1.34
2023-03-18T04:45:02.661Z,-1.27
2023-03-18T04:47:30.166Z,-1.41
2023-03-18T04:49:57.181Z,-1.19
2023-03-18T04:52:24.637Z,-1.12
2023-03-18T04:54:52.097Z,-1.07
2023-03-18T04:57:19.751Z,-1.04
2023-03-18T04:59:51.628Z,-0.98
2023-03-18T05:02:19.981Z,-0.92
2023-03-18T05:04:47.003Z,-0.81
2023-03-18T05:07:16.248Z,-0.73
2023-03-18T05:09:50.984Z,-0.65
2023-03-18T05:12:18.090Z,-0.57
2023-03-18T05:14:46.123Z,-0.64
2023-03-18T05:17:16.102Z,-0.50
2023-03-18T05:19:52.446Z,-0.51
2023-03-18T05:22:22.406Z,-0.45
2023-03-18T05:24:54.994Z,-0.34
2023-03-18T05:27:24.589Z,-0.25
2023-03-18T05:30:01.296Z,-0.18
2023-03-18T05:32:37.027Z,-0.06
2023-03-18T05:35:07.436Z,-0.07
2023-03-18T05:37:43.513Z,0.13
2023-03-18T05:40:12.923Z,0.05
2023-03-18T05:42:55.277Z,0.04
2023-03-18T05:45:31.231Z,0.19
2023-03-18T05:47:58.437Z,0.26
2023-03-18T05:50:37.327Z,0.76
2023-03-18T05:53:09.814Z,1.72
2023-03-18T05:55:40.560Z,3.10
2023-03-18T05:58:08.993Z,4.00
2023-03-18T06:00:38.182Z,4.80
2023-03-18T06:03:05.594Z,5.12
2023-03-18T06:05:34.193Z,4.84
2023-03-18T06:08:02.902Z,4.42
2023-03-18T06:10:30.107Z,3.88
2023-03-18T06:12:57.260Z,3.84
2023-03-18T06:15:25.838Z,4.12
2023-03-18T06:17:52.987Z,4.91
2023-03-18T06:20:20.386Z,5.48
2023-03-18T06:22:51.818Z,5.86
2023-03-18T06:25:21.225Z,6.39
2023-03-18T06:27:50.045Z,7.14
2023-03-18T06:30:19.879Z,7.76
2023-03-18T06:32:47.282Z,8.41
2023-03-18T06:35:15.678Z,9.51
2023-03-18T06:37:43.862Z,10.86
2023-03-18T06:40:12.454Z,12.43
2023-03-18T06:42:41.307Z,13.18
2023-03-18T06:45:17.205Z,13.28
2023-03-18T06:47:52.890Z,14.38
2023-03-18T06:50:20.748Z,15.17
2023-03-18T06:52:48.474Z,15.54
2023-03-18T06:55:18.574Z,16.19
2023-03-18T06:57:46.673Z,16.30
2023-03-18T07:00:17.511Z,16.44
2023-03-18T07:02:45.915Z,17.38
2023-03-18T07:05:15.472Z,18.11
2023-03-18T07:07:43.260Z,17.67
2023-03-18T07:10:18.290Z,17.56
2023-03-18T07:12:47.449Z,17.27
2023-03-18T07:15:14.776Z,17.07
2023-03-18T07:17:41.810Z,17.17
2023-03-18T07:20:10.407Z,17.96
2023-03-18T07:22:37.486Z,17.84
2023-03-18T07:25:05.436Z,18.06
2023-03-18T07:27:32.730Z,18.33
2023-03-18T07:30:02.680Z,17.66
2023-03-18T07:32:30.878Z,17.66
2023-03-18T07:34:59.210Z,17.81
2023-03-18T07:37:26.303Z,17.35
2023-03-18T07:39:53.250Z,17.09
2023-03-18T07:42:20.252Z,17.01
2023-03-18T07:44:47.193Z,16.30
2023-03-18T07:47:16.915Z,14.84
2023-03-18T07:49:44.330Z,15.54
2023-03-18T07:52:11.418Z,16.32
2023-03-18T07:54:38.423Z,16.51
2023-03-18T07:57:07.065Z,16.77
2023-03-18T07:59:34.330Z,17.43
2023-03-18T08:02:04.986Z,18.05
2023-03-18T08:04:32.617Z,18.18
2023-03-18T08:07:00.373Z,17.03
2023-03-18T08:09:30.675Z,15.34
2023-03-18T08:11:57.718Z,15.62
2023-03-18T08:14:24.685Z,15.66
2023-03-18T08:16:51.639Z,15.94
2023-03-18T08:19:18.574Z,16.02
2023-03-18T08:21:45.543Z,16.73
2023-03-18T08:24:12.460Z,17.36
2023-03-18T08:26:39.951Z,17.81
2023-03-18T08:29:07.005Z,18.26
2023-03-18T08:31:34.305Z,18.44
2023-03-18T08:34:01.659Z,18.25
2023-03-18T08:36:28.876Z,18.42
2023-03-18T08:38:56.738Z,18.01
2023-03-18T08:41:25.793Z,18.86
2023-03-18T08:43:53.358Z,17.90
2023-03-18T08:46:20.513Z,17.83
2023-03-18T08:48:47.574Z,19.09
2023-03-18T08:51:14.889Z,20.14
2023-03-18T08:53:41.859Z,19.60
2023-03-18T08:56:09.011Z,19.21
2023-03-18T08:58:36.438Z,18.93
2023-03-18T09:01:05.452Z,19.25
2023-03-18T09:03:33.849Z,19.21
2023-03-18T09:06:00.979Z,19.54
2023-03-18T09:08:30.903Z,19.99
2023-03-18T09:10:58.381Z,20.61
2023-03-18T09:13:25.559Z,20.67
2023-03-18T09:15:53.059Z,20.31
2023-03-18T09:18:20.085Z,20.51
2023-03-18T09:20:47.122Z,20.17
2023-03-18T09:23:15.793Z,20.06
2023-03-18T09:25:42.892Z,20.54
2023-03-18T09:28:10.063Z,22.06
2023-03-18T09:30:38.251Z,21.96
2023-03-18T09:33:09.459Z,21.83
2023-03-18T09:35:37.296Z,20.47
2023-03-18T09:38:04.923Z,20.20
2023-03-18T09:40:36.263Z,20.11
2023-03-18T09:43:23.851Z,19.73
2023-03-18T09:46:13.209Z,18.93
2023-03-18T09:48:55.636Z,18.35
2023-03-18T09:51:46.935Z,16.01
2023-03-18T09:54:33.442Z,16.18
2023-03-18T09:57:01.217Z,15.71
2023-03-18T09:59:33.945Z,15.39
2023-03-18T10:02:01.940Z,15.29
2023-03-18T10:04:38.138Z,14.81
2023-03-18T10:07:15.042Z,15.18
2023-03-18T10:09:44.773Z,15.69
2023-03-18T10:12:22.095Z,15.57
2023-03-18T10:15:00.160Z,15.38
2023-03-18T10:17:59.272Z,15.19
2023-03-18T10:20:37.115Z,15.35
2023-03-18T10:23:19.042Z,15.17
2023-03-18T10:25:54.722Z,14.89
2023-03-18T10:28:40.334Z,14.23
2023-03-18T10:31:39.589Z,15.23
2023-03-18T10:34:13.509Z,15.75
2023-03-18T10:37:06.052Z,15.21
2023-03-18T10:39:35.958Z,13.90
2023-03-18T10:42:19.480Z,13.40
2023-03-18T10:44:47.777Z,13.30
2023-03-18T10:47:19.196Z,14.29
2023-03-18T10:50:11.151Z,14.24
2023-03-18T10:52:51.494Z,13.53
2023-03-18T10:55:24.091Z,13.02
2023-03-18T10:57:51.604Z,13.30
2023-03-18T11:00:33.275Z,13.47
2023-03-18T11:03:02.144Z,13.56
2023-03-18T11:05:34.124Z,13.60
2023-03-18T11:08:09.250Z,13.99
2023-03-18T11:10:47.154Z,13.91
2023-03-18T11:13:18.556Z,13.81
2023-03-18T11:15:50.862Z,13.63
2023-03-18T11:18:23.937Z,13.20
2023-03-18T11:21:03.753Z,12.97
2023-03-18T11:23:49.566Z,12.67
2023-03-18T11:26:28.459Z,12.74
2023-03-18T11:29:20.608Z,12.75
2023-03-18T11:31:54.964Z,12.66
2023-03-18T11:34:22.332Z,12.62
2023-03-18T11:37:01.515Z,12.41
2023-03-18T11:39:36.808Z,12.17
2023-03-18T11:42:17.093Z,11.87
2023-03-18T11:44:44.074Z,11.79
2023-03-18T11:47:13.801Z,11.59
2023-03-18T11:49:43.839Z,11.28
2023-03-18T11:52:40.968Z,10.89
2023-03-18T11:55:22.130Z,10.33
2023-03-18T11:58:08.847Z,10.31
2023-03-18T12:00:49.207Z,10.08
2023-03-18T12:03:37.670Z,9.43
2023-03-18T12:06:25.157Z,8.57
2023-03-18T12:09:25.267Z,8.76
2023-03-18T12:11:55.465Z,8.75
2023-03-18T12:14:35.716Z,8.94
2023-03-18T12:17:41.271Z,8.54
2023-03-18T12:20:43.691Z,8.62
2023-03-18T12:23:34.810Z,8.54
2023-03-18T12:26:34.701Z,8.61
2023-03-18T12:29:29.266Z,8.38
2023-03-18T12:32:35.537Z,8.41
2023-03-18T12:35:02.783Z,8.33
2023-03-18T12:38:09.533Z,8.37
2023-03-18T12:40:59.769Z,8.40
2023-03-18T12:43:43.900Z,8.17
2023-03-18T12:46:34.358Z,7.93
2023-03-18T12:49:13.430Z,7.60
2023-03-18T12:51:49.626Z,7.59
2023-03-18T12:54:24.251Z,7.54
2023-03-18T12:56:58.573Z,7.49
2023-03-18T12:59:46.323Z,7.51
2023-03-18T13:02:31.697Z,7.63
2023-03-18T13:05:02.867Z,7.57
2023-03-18T13:07:47.040Z,7.53
2023-03-18T13:10:21.959Z,7.61
2023-03-18T13:12:54.854Z,7.31
2023-03-18T13:15:33.827Z,7.12
2023-03-18T13:18:12.693Z,6.95
2023-03-18T13:20:41.866Z,6.82
2023-03-18T13:23:09.804Z,6.89
2023-03-18T13:26:13.395Z,6.49
2023-03-18T13:29:10.890Z,6.64
2023-03-18T13:32:21.623Z,6.75
2023-03-18T13:35:14.638Z,6.33
2023-03-18T13:37:53.621Z,6.51
2023-03-18T13:40:35.742Z,6.67
2023-03-18T13:43:04.706Z,6.68
2023-03-18T13:45:40.235Z,6.73
2023-03-18T13:48:13.866Z,6.72
2023-03-18T13:50:43.420Z,6.60
2023-03-18T13:53:22.526Z,6.51
2023-03-18T13:55:54.235Z,6.51
2023-03-18T13:58:30.080Z,6.61
2023-03-18T14:00:57.119Z,6.66
2023-03-18T14:03:33.300Z,6.65
2023-03-18T14:06:09.342Z,6.60
2023-03-18T14:08:39.037Z,6.57
2023-03-18T14:11:22.871Z,6.55
2023-03-18T14:13:51.971Z,6.55
2023-03-18T14:16:28.327Z,6.40
2023-03-18T14:19:03.013Z,6.35
2023-03-18T14:21:33.043Z,6.26
2023-03-18T14:24:22.099Z,6.28
2023-03-18T14:26:49.508Z,6.15
2023-03-18T14:29:31.065Z,6.09
2023-03-18T14:31:59.967Z,5.99
2023-03-18T14:34:33.447Z,5.92
2023-03-18T14:37:00.444Z,5.86
2023-03-18T14:39:32.971Z,5.91
2023-03-18T14:42:03.230Z,5.73
2023-03-18T14:44:37.783Z,5.79
2023-03-18T14:47:13.306Z,5.60
2023-03-18T14:49:55.767Z,5.71
2023-03-18T14:52:41.474Z,5.82
2023-03-18T14:55:18.274Z,5.85
2023-03-18T14:57:46.401Z,5.75
2023-03-18T15:00:18.784Z,5.80
2023-03-18T15:02:46.236Z,5.69
2023-03-18T15:05:19.349Z,5.65
2023-03-18T15:07:51.468Z,5.54
2023-03-18T15:10:24.727Z,5.44
2023-03-18T15:13:10.121Z,5.49
2023-03-18T15:15:37.457Z,5.46
2023-03-18T15:18:26.704Z,5.36
2023-03-18T15:21:16.118Z,5.22
2023-03-18T15:23:52.016Z,5.25
2023-03-18T15:26:23.751Z,5.30
2023-03-18T15:28:59.240Z,5.24
2023-03-18T15:31:32.315Z,5.10
2023-03-18T15:34:31.827Z,5.02
2023-03-18T15:37:01.923Z,5.00
2023-03-18T15:39:39.983Z,4.98
2023-03-18T15:42:20.052Z,4.91
2023-03-18T15:45:05.390Z,4.98
2023-03-18T15:47:32.873Z,4.92
2023-03-18T15:50:09.788Z,4.90
2023-03-18T15:52:41.941Z,4.79
2023-03-18T15:55:35.714Z,4.89
2023-03-18T15:58:07.093Z,4.37
2023-03-18T16:00:34.942Z,4.73
2023-03-18T16:03:01.936Z,4.74
2023-03-18T16:05:29.256Z,4.61
2023-03-18T16:07:57.026Z,4.60
2023-03-18T16:10:26.564Z,4.61
2023-03-18T16:12:59.914Z,4.48
2023-03-18T16:15:28.082Z,4.48
2023-03-18T16:17:56.482Z,4.45
2023-03-18T16:20:29.023Z,4.21
2023-03-18T16:22:56.953Z,4.39
2023-03-18T16:25:25.347Z,4.51
2023-03-18T16:27:59.274Z,4.49
2023-03-18T16:30:29.242Z,4.35
2023-03-18T16:32:57.590Z,4.16
2023-03-18T16:35:27.131Z,4.25
2023-03-18T16:37:54.545Z,4.14
2023-03-18T16:40:24.699Z,4.19
2023-03-18T16:42:52.815Z,3.99
2023-03-18T16:45:31.104Z,3.98
2023-03-18T16:48:03.604Z,4.00
2023-03-18T16:50:35.033Z,3.92
2023-03-18T16:53:03.053Z,3.83
2023-03-18T16:55:30.281Z,3.77
2023-03-18T16:57:59.735Z,3.76
2023-03-18T17:00:31.806Z,3.79
2023-03-18T17:03:00.278Z,3.84
2023-03-18T17:05:28.207Z,3.78
2023-03-18T17:07:55.176Z,3.78
2023-03-18T17:10:26.243Z,3.68
2023-03-18T17:12:57.657Z,3.55
2023-03-18T17:15:29.350Z,3.63
2023-03-18T17:17:58.690Z,3.56
2023-03-18T17:20:27.937Z,3.64
2023-03-18T17:22:55.801Z,3.51
2023-03-18T17:25:27.220Z,3.57
2023-03-18T17:28:00.128Z,3.47
2023-03-18T17:30:34.919Z,3.54
2023-03-18T17:33:04.555Z,3.51
2023-03-18T17:35:32.371Z,3.62
2023-03-18T17:37:59.877Z,3.56
2023-03-18T17:40:30.424Z,3.54
2023-03-18T17:42:57.566Z,3.54
2023-03-18T17:45:32.299Z,3.47
2023-03-18T17:48:21.515Z,3.45
2023-03-18T17:50:51.167Z,3.30
2023-03-18T17:53:42.212Z,3.19
2023-03-18T17:56:14.099Z,3.11
2023-03-18T17:58:44.592Z,3.08
2023-03-18T18:01:22.545Z,3.07
2023-03-18T18:03:49.543Z,3.10
2023-03-18T18:06:19.156Z,3.08
2023-03-18T18:08:47.641Z,2.96
2023-03-18T18:11:38.060Z,2.96
2023-03-18T18:14:14.819Z,2.89
2023-03-18T18:16:41.819Z,2.94
2023-03-18T18:19:10.855Z,2.85
2023-03-18T18:21:37.990Z,2.83
2023-03-18T18:24:33.528Z,2.68
2023-03-18T18:27:00.622Z,2.74
2023-03-18T18:29:29.580Z,2.61
2023-03-18T18:31:57.482Z,2.42
2023-03-18T18:34:24.547Z,2.72
2023-03-18T18:36:51.782Z,2.70
2023-03-18T18:39:19.705Z,2.69
2023-03-18T18:41:46.892Z,2.65
2023-03-18T18:44:14.214Z,2.61
2023-03-18T18:46:41.508Z,2.55
2023-03-18T18:49:18.851Z,2.52
2023-03-18T18:51:46.819Z,2.55
2023-03-18T18:54:14.176Z,2.35
2023-03-18T18:56:42.553Z,2.30
2023-03-18T18:59:23.194Z,2.32
2023-03-18T19:01:51.128Z,2.20
2023-03-18T19:04:18.322Z,2.33
2023-03-18T19:06:46.460Z,2.29
2023-03-18T19:09:19.193Z,2.25
2023-03-18T19:11:47.398Z,2.14
2023-03-18T19:14:19.081Z,2.02
2023-03-18T19:16:46.806Z,2.09
2023-03-18T19:19:19.004Z,1.93
2023-03-18T19:21:46.511Z,1.99
2023-03-18T19:24:33.813Z,1.76
2023-03-18T19:27:04.190Z,1.89
2023-03-18T19:29:34.938Z,1.79
2023-03-18T19:32:02.097Z,1.74
2023-03-18T19:34:32.440Z,1.79
2023-03-18T19:37:02.908Z,1.82
2023-03-18T19:39:30.062Z,1.86
2023-03-18T19:41:56.984Z,1.79
2023-03-18T19:44:26.743Z,1.64
2023-03-18T19:46:56.253Z,1.67
2023-03-18T19:49:27.479Z,1.77
2023-03-18T19:51:55.176Z,1.78
2023-03-18T19:54:25.348Z,1.66
2023-03-18T19:56:53.186Z,1.73
2023-03-18T19:59:25.558Z,1.59
2023-03-18T20:01:52.582Z,1.39
2023-03-18T20:04:20.730Z,1.46
2023-03-18T20:06:47.780Z,1.49
2023-03-18T20:09:15.142Z,1.52
2023-03-18T20:11:42.228Z,1.51
2023-03-18T20:14:31.049Z,1.53
2023-03-18T20:17:05.979Z,1.46
2023-03-18T20:19:33.011Z,1.43
2023-03-18T20:22:00.010Z,1.41
2023-03-18T20:24:29.821Z,1.48
2023-03-18T20:26:56.811Z,1.44
2023-03-18T20:29:25.446Z,1.33
2023-03-18T20:31:52.529Z,1.46
2023-03-18T20:34:19.562Z,1.53
2023-03-18T20:36:46.655Z,1.52
2023-03-18T20:39:20.652Z,1.55
2023-03-18T20:41:48.227Z,1.49
2023-03-18T20:44:15.437Z,1.44
2023-03-18T20:46:43.132Z,1.40
2023-03-18T20:49:10.315Z,1.48
2023-03-18T20:51:40.923Z,1.43
2023-03-18T20:54:19.715Z,1.52
2023-03-18T20:56:47.594Z,1.44
2023-03-18T20:59:14.666Z,1.07
2023-03-18T21:01:41.932Z,1.35
2023-03-18T21:04:12.901Z,1.31
2023-03-18T21:06:42.159Z,1.21
2023-03-18T21:09:10.668Z,1.24
2023-03-18T21:11:40.780Z,1.27
2023-03-18T21:14:13.284Z,1.31
2023-03-18T21:16:40.262Z,1.29
2023-03-18T21:19:07.359Z,1.29
2023-03-18T21:21:39.192Z,1.05
2023-03-18T21:24:25.430Z,1.23
2023-03-18T21:27:04.155Z,1.21
2023-03-18T21:29:32.224Z,1.18
2023-03-18T21:32:00.089Z,1.25
2023-03-18T21:34:27.086Z,1.25
2023-03-18T21:36:54.035Z,1.20
2023-03-18T21:39:21.393Z,1.18
2023-03-18T21:41:48.375Z,1.15
2023-03-18T21:44:15.321Z,1.01
2023-03-18T21:46:42.327Z,1.15
2023-03-18T21:49:09.353Z,1.02
2023-03-18T21:51:40.417Z,1.17
2023-03-18T21:54:18.013Z,1.11
2023-03-18T21:56:45.076Z,1.08
2023-03-18T21:59:12.002Z,1.06
2023-03-18T22:01:39.182Z,1.05
2023-03-18T22:04:06.413Z,0.94
2023-03-18T22:06:34.121Z,0.93
2023-03-18T22:09:01.659Z,0.86
2023-03-18T22:11:28.845Z,0.92
2023-03-18T22:13:55.898Z,0.90
2023-03-18T22:16:23.077Z,0.87
2023-03-18T22:18:50.108Z,0.88
2023-03-18T22:21:35.006Z,0.93
2023-03-18T22:24:02.055Z,0.46
2023-03-18T22:26:29.050Z,0.75
2023-03-18T22:28:55.995Z,0.69
2023-03-18T22:31:25.798Z,0.80
2023-03-18T22:33:53.553Z,0.81
2023-03-18T22:36:21.964Z,0.76
2023-03-18T22:38:50.060Z,0.77
2023-03-18T22:41:31.260Z,0.76
2023-03-18T22:44:00.206Z,0.71
2023-03-18T22:46:28.583Z,0.61
2023-03-18T22:48:56.015Z,0.58
2023-03-18T22:51:27.807Z,0.48
2023-03-18T22:53:55.246Z,0.56
2023-03-18T22:56:23.062Z,0.46
2023-03-18T22:58:50.548Z,0.47
2023-03-18T23:01:20.134Z,0.49
2023-03-18T23:03:47.681Z,0.45
2023-03-18T23:06:20.942Z,0.47
2023-03-18T23:08:48.118Z,0.34
2023-03-18T23:11:16.650Z,0.37
2023-03-18T23:13:53.331Z,0.39
2023-03-18T23:16:22.875Z,0.42
2023-03-18T23:18:50.897Z,0.40
2023-03-18T23:21:21.611Z,0.38
2023-03-18T23:23:49.020Z,0.37
2023-03-18T23:26:17.034Z,0.05
2023-03-18T23:28:45.304Z,0.24
2023-03-18T23:31:14.202Z,0.23
2023-03-18T23:33:41.437Z,0.23
2023-03-18T23:36:08.913Z,0.25
2023-03-18T23:38:37.839Z,0.15
2023-03-18T23:41:06.065Z,0.20
2023-03-18T23:43:33.085Z,0.19
2023-03-18T23:46:00.193Z,0.03
2023-03-18T23:48:27.417Z,0.13
2023-03-18T23:50:54.401Z,-0.08
2023-03-18T23:53:21.441Z,-0.02
2023-03-18T23:55:49.490Z,0.08
2023-03-18T23:58:16.803Z,0.05
